Time;durP1;ratioP1;P1;durP2;ratioP2;P2;SDS_P1;SDS_P2;PMS_P1;PMS_P2;Temp;Humidity;BMP_temperature;BMP_pressure;BME280_temperature;BME280_humidity;BME280_pressure;Samples;Min_cycle;Max_cycle;Signal;HPM_P1;HPM_P2
2021/08/20 00:00:59;;;;;;;7.72;5.20;;;18.30;68.80;;;;;;5066732;28;20029;-68
2021/08/20 00:03:26;;;;;;;7.50;4.80;;;18.40;68.10;;;;;;5071471;28;20103;-69
2021/08/20 00:05:53;;;;;;;9.52;4.70;;;18.60;67.40;;;;;;5071227;28;20013;-67
2021/08/20 00:08:21;;;;;;;7.38;5.60;;;18.60;67.10;;;;;;5072036;28;20020;-73
2021/08/20 00:10:50;;;;;;;10.23;4.80;;;18.70;67.00;;;;;;5065960;28;20036;-68
2021/08/20 00:13:18;;;;;;;7.60;5.00;;;18.80;66.80;;;;;;5067955;28;20526;-68
2021/08/20 00:15:46;;;;;;;9.55;4.50;;;18.90;66.60;;;;;;5070824;28;20032;-69
2021/08/20 00:18:14;;;;;;;5.72;4.40;;;19.00;66.10;;;;;;5071080;28;20431;-72
2021/08/20 00:20:41;;;;;;;11.50;5.15;;;19.10;66.10;;;;;;5065759;28;20031;-67
2021/08/20 00:23:09;;;;;;;7.95;4.45;;;19.10;65.20;;;;;;5070794;28;20048;-74
2021/08/20 00:25:36;;;;;;;7.53;4.97;;;19.30;65.40;;;;;;5070610;28;20379;-72
2021/08/20 00:28:04;;;;;;;8.82;4.70;;;19.30;65.00;;;;;;5070930;28;20442;-68
2021/08/20 00:30:31;;;;;;;5.43;4.32;;;19.30;65.20;;;;;;5066130;28;20453;-63
2021/08/20 00:32:58;;;;;;;7.43;4.28;;;19.40;65.10;;;;;;5069740;28;20020;-66
2021/08/20 00:35:26;;;;;;;8.18;5.38;;;19.50;63.40;;;;;;5071287;28;20056;-67
2021/08/20 00:37:53;;;;;;;6.10;4.68;;;19.60;64.20;;;;;;5071028;28;20044;-68
2021/08/20 00:40:21;;;;;;;5.50;4.38;;;19.70;63.50;;;;;;5065059;28;20032;-64
2021/08/20 00:42:50;;;;;;;6.10;4.50;;;19.70;63.60;;;;;;5069931;28;20029;-66
2021/08/20 00:45:17;;;;;;;6.25;3.88;;;19.80;63.80;;;;;;5069460;28;20035;-72
2021/08/20 00:47:44;;;;;;;6.40;4.55;;;19.80;62.30;;;;;;5070674;28;20023;-68
2021/08/20 00:50:12;;;;;;;4.93;3.95;;;19.90;63.80;;;;;;5066109;28;20032;-68
2021/08/20 00:52:57;;;;;;;5.97;4.13;;;19.90;63.40;;;;;;5070596;28;20028;-68
2021/08/20 00:55:28;;;;;;;5.50;3.78;;;19.90;63.60;;;;;;5070609;28;20059;-66
2021/08/20 00:57:55;;;;;;;8.02;4.32;;;20.00;63.30;;;;;;5069826;28;20593;-66
2021/08/20 01:00:22;;;;;;;5.68;3.92;;;20.10;62.80;;;;;;5066142;28;20104;-69
2021/08/20 01:02:50;;;;;;;7.53;4.43;;;20.20;62.80;;;;;;5070880;28;20020;-66
2021/08/20 01:05:19;;;;;;;6.93;4.55;;;20.20;61.60;;;;;;5068671;28;20328;-74
2021/08/20 01:07:55;;;;;;;9.32;3.45;;;20.20;62.10;;;;;;5070047;28;20041;-68
2021/08/20 01:10:23;;;;;;;5.55;4.10;;;20.40;61.90;;;;;;5065697;28;20029;-72
2021/08/20 01:12:50;;;;;;;12.20;4.25;;;20.50;62.50;;;;;;5070133;28;20024;-69
2021/08/20 01:15:18;;;;;;;6.05;3.63;;;20.60;60.40;;;;;;5071248;28;20479;-71
2021/08/20 01:17:46;;;;;;;4.45;3.38;;;20.60;59.10;;;;;;5070513;28;20052;-71
2021/08/20 01:20:14;;;;;;;4.32;3.50;;;20.60;61.50;;;;;;5065591;28;20017;-69
2021/08/20 01:22:45;;;;;;;4.47;4.05;;;20.70;61.20;;;;;;5071525;28;20056;-67
2021/08/20 01:25:12;;;;;;;4.78;3.55;;;20.60;61.30;;;;;;5075247;28;20013;-67
2021/08/20 01:27:40;;;;;;;5.63;3.30;;;20.70;62.30;;;;;;5069145;28;20035;-70
2021/08/20 01:30:08;;;;;;;6.45;3.00;;;20.60;60.00;;;;;;5062513;28;20047;-70
2021/08/20 01:32:45;;;;;;;3.92;3.33;;;20.90;59.00;;;;;;5069802;28;20535;-64
2021/08/20 01:35:12;;;;;;;6.72;3.70;;;21.30;57.20;;;;;;5068033;28;20113;-64
2021/08/20 01:37:40;;;;;;;12.32;3.10;;;21.40;58.20;;;;;;5069824;28;20036;-64
2021/08/20 01:40:08;;;;;;;4.63;2.35;;;21.60;54.20;;;;;;5070812;28;20420;-64
2021/08/20 01:42:35;;;;;;;4.82;3.45;;;21.80;50.90;;;;;;5070880;28;20153;-64
2021/08/20 01:45:02;;;;;;;3.25;2.20;;;21.90;54.30;;;;;;5069790;28;20021;-65
2021/08/20 01:47:30;;;;;;;3.88;1.90;;;21.90;51.60;;;;;;5071495;28;20013;-64
2021/08/20 01:49:57;;;;;;;4.45;2.05;;;22.00;52.10;;;;;;5071637;28;20498;-66
2021/08/20 01:52:25;;;;;;;6.95;2.38;;;22.10;51.30;;;;;;5070948;28;20032;-66
2021/08/20 01:54:52;;;;;;;6.57;2.35;;;22.20;51.00;;;;;;5070863;28;20016;-65
2021/08/20 01:57:19;;;;;;;3.97;2.17;;;22.20;52.50;;;;;;5070858;28;20033;-70
2021/08/20 01:59:47;;;;;;;3.88;1.90;;;21.70;56.10;;;;;;5071343;28;20033;-65
2021/08/20 02:02:14;;;;;;;4.57;2.05;;;21.40;57.80;;;;;;5070786;28;20036;-66
2021/08/20 02:04:42;;;;;;;5.97;1.80;;;21.30;58.10;;;;;;5069740;28;20256;-69
2021/08/20 02:07:09;;;;;;;4.85;2.05;;;21.30;58.10;;;;;;5070914;28;20031;-68
2021/08/20 02:09:37;;;;;;;3.97;1.77;;;21.30;58.20;;;;;;5071628;28;20557;-66
2021/08/20 02:12:05;;;;;;;6.10;2.00;;;21.10;59.50;;;;;;5070975;28;20123;-70
2021/08/20 02:14:32;;;;;;;6.68;2.30;;;21.20;59.90;;;;;;5069338;28;20463;-67
2021/08/20 02:17:00;;;;;;;9.68;2.58;;;21.30;59.30;;;;;;5068828;28;20040;-69
2021/08/20 02:19:27;;;;;;;2.38;1.40;;;21.50;53.80;;;;;;5070113;28;20051;-69
2021/08/20 02:21:54;;;;;;;3.90;1.85;;;21.50;56.70;;;;;;5070142;28;20047;-70
2021/08/20 02:24:22;;;;;;;4.65;1.63;;;21.50;56.00;;;;;;5069875;28;20028;-70
2021/08/20 02:26:49;;;;;;;4.75;1.33;;;21.60;58.80;;;;;;5069638;28;20059;-69
2021/08/20 02:29:17;;;;;;;3.95;2.13;;;21.60;58.50;;;;;;5070815;28;20083;-70
2021/08/20 02:31:44;;;;;;;4.00;1.40;;;21.70;58.30;;;;;;5071281;28;20082;-70
2021/08/20 02:34:12;;;;;;;6.65;2.00;;;21.90;56.20;;;;;;5071546;28;20020;-70
2021/08/20 02:36:39;;;;;;;1.98;1.55;;;21.70;58.90;;;;;;5070752;28;20040;-70
2021/08/20 02:39:06;;;;;;;3.88;1.92;;;21.80;58.60;;;;;;5071121;28;20028;-68
2021/08/20 02:41:34;;;;;;;3.45;1.80;;;21.80;57.70;;;;;;5070689;28;20028;-70
2021/08/20 02:44:01;;;;;;;3.42;1.63;;;21.80;58.50;;;;;;5069047;28;20074;-69
2021/08/20 02:46:29;;;;;;;5.38;1.70;;;21.80;58.60;;;;;;5071092;28;20100;-71
2021/08/20 02:48:57;;;;;;;2.95;1.20;;;21.90;58.00;;;;;;5064331;28;20012;-70
2021/08/20 02:51:24;;;;;;;2.08;1.20;;;22.00;56.70;;;;;;5072968;28;20596;-69
2021/08/20 02:53:52;;;;;;;2.40;1.15;;;22.10;56.30;;;;;;5068240;28;20093;-71
2021/08/20 02:56:20;;;;;;;4.93;1.73;;;22.10;54.80;;;;;;5075132;28;20020;-67
2021/08/20 02:58:47;;;;;;;6.93;1.48;;;22.00;58.30;;;;;;5072243;28;20503;-67
2021/08/20 03:01:15;;;;;;;1.92;1.20;;;22.10;55.70;;;;;;5070513;28;20020;-69
2021/08/20 03:03:43;;;;;;;4.97;1.67;;;22.20;57.80;;;;;;5066680;28;20499;-65
2021/08/20 03:06:11;;;;;;;6.25;1.67;;;22.30;57.50;;;;;;5068181;28;20038;-64
2021/08/20 03:08:39;;;;;;;6.38;1.20;;;22.20;57.60;;;;;;5066292;28;20027;-71
2021/08/20 03:11:06;;;;;;;2.17;1.30;;;22.50;54.20;;;;;;5067091;28;20032;-68
2021/08/20 03:13:34;;;;;;;2.92;1.33;;;22.50;56.60;;;;;;5062554;28;20082;-73
2021/08/20 03:16:01;;;;;;;3.83;1.58;;;22.60;53.30;;;;;;5067662;28;20028;-69
2021/08/20 03:18:29;;;;;;;4.63;1.42;;;22.70;55.00;;;;;;5067703;28;20605;-71
2021/08/20 03:20:56;;;;;;;5.82;1.23;;;22.70;56.60;;;;;;5067259;28;20028;-69
2021/08/20 03:23:24;;;;;;;3.13;1.40;;;22.70;55.20;;;;;;5064780;28;20059;-69
2021/08/20 03:25:51;;;;;;;1.67;1.00;;;22.70;55.00;;;;;;5070868;28;20020;-64
2021/08/20 03:28:19;;;;;;;3.30;1.08;;;22.60;57.00;;;;;;5071309;28;20020;-69
2021/08/20 03:30:46;;;;;;;3.53;0.95;;;22.50;57.40;;;;;;5069541;28;20048;-70
2021/08/20 03:33:14;;;;;;;1.30;1.20;;;22.50;56.00;;;;;;5067186;28;20028;-70
2021/08/20 03:35:41;;;;;;;3.97;1.10;;;22.60;56.50;;;;;;5072620;28;20029;-67
2021/08/20 03:38:08;;;;;;;2.08;1.20;;;22.80;55.20;;;;;;5068955;28;20462;-72
2021/08/20 03:40:36;;;;;;;3.10;1.33;;;23.10;54.40;;;;;;5071002;28;20793;-65
2021/08/20 03:43:04;;;;;;;2.95;0.85;;;23.00;56.10;;;;;;5067152;28;20352;-72
2021/08/20 03:45:31;;;;;;;2.63;0.80;;;23.10;52.80;;;;;;5071099;28;20025;-70
2021/08/20 03:47:58;;;;;;;3.20;1.55;;;23.10;55.70;;;;;;5071349;28;20103;-62
2021/08/20 03:50:26;;;;;;;3.33;1.15;;;22.90;55.90;;;;;;5072288;28;20432;-71
2021/08/20 03:52:53;;;;;;;3.70;0.82;;;22.90;56.00;;;;;;5066908;28;20040;-64
2021/08/20 03:55:21;;;;;;;0.70;0.70;;;23.10;54.10;;;;;;5072004;28;20085;-65
2021/08/20 03:57:49;;;;;;;2.95;1.35;;;23.20;55.40;;;;;;5071221;28;20039;-65
2021/08/20 04:00:17;;;;;;;1.38;0.80;;;23.10;55.20;;;;;;5071863;28;20443;-67
2021/08/20 04:02:45;;;;;;;1.90;1.15;;;23.20;54.50;;;;;;5066349;28;20040;-70
2021/08/20 04:05:12;;;;;;;1.10;1.00;;;23.40;54.40;;;;;;5071878;28;20020;-71
2021/08/20 04:07:40;;;;;;;4.55;0.98;;;23.40;55.00;;;;;;5071754;28;20036;-70
2021/08/20 04:10:08;;;;;;;1.83;0.88;;;23.50;51.40;;;;;;5070873;28;20016;-66
2021/08/20 04:12:36;;;;;;;1.55;0.82;;;23.50;53.50;;;;;;5066591;28;20024;-70
2021/08/20 04:15:03;;;;;;;1.15;0.98;;;23.60;52.60;;;;;;5070581;28;20032;-69
2021/08/20 04:17:31;;;;;;;3.75;1.08;;;23.40;53.80;;;;;;5071485;28;20029;-73
2021/08/20 04:19:58;;;;;;;1.27;1.00;;;23.70;52.20;;;;;;5071702;28;20381;-72
2021/08/20 04:22:26;;;;;;;1.05;0.65;;;23.60;53.70;;;;;;5065941;28;20029;-70
2021/08/20 04:24:53;;;;;;;3.60;1.40;;;23.60;54.60;;;;;;5066752;28;20051;-70
2021/08/20 04:27:21;;;;;;;1.38;0.93;;;23.60;51.80;;;;;;5070985;28;20032;-67
2021/08/20 04:29:48;;;;;;;2.03;0.70;;;23.70;52.90;;;;;;5071723;28;20037;-72
2021/08/20 04:32:18;;;;;;;2.50;0.98;;;23.90;51.50;;;;;;5067226;28;20024;-72
2021/08/20 04:34:46;;;;;;;3.35;1.08;;;24.00;50.60;;;;;;5071683;28;20013;-70
2021/08/20 04:37:14;;;;;;;0.98;0.60;;;23.90;53.20;;;;;;5070980;28;20222;-69
2021/08/20 04:39:41;;;;;;;3.60;1.45;;;23.80;53.90;;;;;;5068372;28;20067;-71
2021/08/20 04:42:09;;;;;;;1.52;0.85;;;23.80;53.80;;;;;;5062894;28;20025;-75
2021/08/20 04:44:36;;;;;;;1.25;0.70;;;23.80;53.70;;;;;;5070750;28;20036;-68
2021/08/20 04:47:04;;;;;;;2.30;0.77;;;23.90;53.60;;;;;;5069372;28;20058;-70
2021/08/20 04:49:31;;;;;;;1.80;1.13;;;23.90;53.80;;;;;;5068091;28;20033;-69
2021/08/20 04:51:59;;;;;;;0.82;0.68;;;23.80;52.60;;;;;;5066494;28;20032;-70
2021/08/20 04:54:28;;;;;;;2.10;0.90;;;23.80;53.20;;;;;;5073072;28;20021;-72
2021/08/20 04:56:55;;;;;;;3.58;1.00;;;23.90;52.00;;;;;;5072585;28;20383;-69
2021/08/20 04:59:23;;;;;;;1.60;0.70;;;23.90;53.10;;;;;;5073032;28;20044;-69
2021/08/20 05:01:50;;;;;;;4.10;1.20;;;24.00;52.80;;;;;;5073105;28;20074;-69
2021/08/20 05:04:18;;;;;;;3.53;0.88;;;24.10;52.70;;;;;;5072530;28;20434;-68
2021/08/20 05:06:45;;;;;;;1.80;0.98;;;24.10;50.70;;;;;;5073116;28;20016;-69
2021/08/20 05:09:13;;;;;;;0.80;0.63;;;24.20;52.20;;;;;;5073502;28;20574;-70
2021/08/20 05:11:45;;;;;;;2.47;1.20;;;24.00;53.60;;;;;;5073066;28;20029;-71
2021/08/20 05:14:18;;;;;;;1.75;0.75;;;23.90;51.00;;;;;;5073852;28;20073;-71
2021/08/20 05:16:48;;;;;;;3.35;0.98;;;24.00;53.40;;;;;;5071635;28;20395;-71
2021/08/20 05:19:19;;;;;;;8.70;3.67;;;24.00;51.80;;;;;;5067301;28;20060;-71
2021/08/20 05:21:52;;;;;;;2.92;1.20;;;24.00;52.50;;;;;;5071592;28;20142;-65
2021/08/20 05:24:20;;;;;;;2.22;1.17;;;23.90;52.70;;;;;;5073175;28;20380;-69
2021/08/20 05:26:54;;;;;;;7.60;1.73;;;24.10;50.40;;;;;;5069681;28;20043;-72
2021/08/20 05:32:34;;;;;;;1.60;0.70;;;24.10;52.90;;;;;;5061175;28;20109;-66
2021/08/20 05:35:16;;;;;;;8.38;1.05;;;24.00;51.40;;;;;;5067435;28;20044;-66
2021/08/20 05:37:48;;;;;;;9.27;1.63;;;24.10;51.40;;;;;;5067988;28;20040;-68
2021/08/20 05:40:16;;;;;;;1.25;0.70;;;24.10;51.70;;;;;;5071666;28;20052;-69
2021/08/20 05:42:44;;;;;;;2.55;1.10;;;23.90;52.90;;;;;;5071328;28;20020;-70
2021/08/20 05:45:12;;;;;;;2.13;0.80;;;23.90;51.10;;;;;;5071388;28;20467;-64
2021/08/20 05:47:40;;;;;;;2.40;0.90;;;23.70;52.50;;;;;;5067217;28;20028;-64
2021/08/20 05:50:12;;;;;;;5.40;1.40;;;23.70;50.70;;;;;;5066575;28;20020;-70
2021/08/20 05:52:40;;;;;;;2.13;0.90;;;23.60;51.20;;;;;;5071030;28;20064;-64
2021/08/20 05:55:12;;;;;;;3.90;1.08;;;23.40;52.30;;;;;;5070729;28;20080;-69
2021/08/20 05:57:39;;;;;;;;;;;23.30;52.90;;;;;;5067699;28;20043;-70
2021/08/20 06:00:08;;;;;;;3.53;1.40;;;23.30;52.30;;;;;;5070955;28;19927;-70
2021/08/20 06:02:39;;;;;;;2.88;0.80;;;23.20;53.80;;;;;;5070499;28;20025;-68
2021/08/20 06:05:10;;;;;;;3.55;0.85;;;22.90;54.80;;;;;;5071649;28;20044;-75
2021/08/20 06:07:38;;;;;;;1.30;0.82;;;22.80;56.20;;;;;;5066887;28;20024;-71
2021/08/20 06:10:08;;;;;;;2.45;1.10;;;22.80;55.20;;;;;;5073746;28;20032;-63
2021/08/20 06:12:35;;;;;;;0.80;0.70;;;22.80;56.00;;;;;;5076094;28;20062;-71
2021/08/20 06:15:03;;;;;;;1.30;0.68;;;22.80;56.60;;;;;;5074630;28;20634;-70
2021/08/20 06:17:46;;;;;;;3.67;0.88;;;22.80;55.70;;;;;;5069157;28;20051;-73
2021/08/20 06:20:14;;;;;;;2.15;0.68;;;22.60;56.80;;;;;;5075267;28;20031;-74
2021/08/20 06:22:42;;;;;;;2.10;0.70;;;22.60;56.40;;;;;;5073611;28;20189;-73
2021/08/20 06:25:10;;;;;;;10.38;0.93;;;22.60;56.70;;;;;;5073060;28;20028;-65
2021/08/20 06:27:37;;;;;;;1.05;0.68;;;22.60;57.10;;;;;;5068903;28;20097;-65
2021/08/20 06:30:06;;;;;;;4.25;0.75;;;22.50;57.60;;;;;;5073531;28;20036;-61
2021/08/20 06:32:33;;;;;;;4.10;0.95;;;22.50;57.40;;;;;;5071202;28;20441;-66
2021/08/20 06:35:00;;;;;;;2.70;0.82;;;22.50;56.60;;;;;;5073379;28;20039;-67
2021/08/20 06:37:28;;;;;;;0.77;0.77;;;22.40;55.80;;;;;;5067792;28;20124;-67
2021/08/20 06:39:55;;;;;;;0.50;0.50;;;22.40;55.70;;;;;;5072371;28;20032;-68
2021/08/20 06:42:23;;;;;;;4.95;1.70;;;22.30;57.40;;;;;;5072561;28;20378;-72
2021/08/20 06:44:51;;;;;;;5.38;0.90;;;22.10;57.30;;;;;;5075499;28;20021;-70
2021/08/20 06:47:18;;;;;;;3.08;0.73;;;22.00;57.60;;;;;;5075460;28;20135;-73
2021/08/20 06:49:46;;;;;;;2.10;0.65;;;21.80;58.30;;;;;;5075393;28;20406;-70
2021/08/20 06:52:14;;;;;;;5.30;1.13;;;21.60;58.90;;;;;;5075078;28;20029;-69
2021/08/20 06:54:41;;;;;;;3.58;1.10;;;21.50;58.50;;;;;;5074644;28;20481;-70
2021/08/20 06:57:10;;;;;;;1.05;0.60;;;21.40;59.70;;;;;;5074468;28;20394;-65
2021/08/20 06:59:37;;;;;;;1.42;0.70;;;21.20;59.80;;;;;;5075584;28;20029;-73
2021/08/20 07:02:05;;;;;;;1.98;0.65;;;21.10;60.50;;;;;;5075292;28;20024;-71
2021/08/20 07:04:36;;;;;;;1.95;0.82;;;21.00;60.70;;;;;;5075615;28;20021;-75
2021/08/20 07:07:03;;;;;;;1.55;0.65;;;20.90;61.30;;;;;;5074908;28;20024;-71
2021/08/20 07:09:31;;;;;;;3.83;1.33;;;20.80;61.50;;;;;;5073974;28;20112;-70
2021/08/20 07:11:58;;;;;;;8.48;1.10;;;20.70;61.90;;;;;;5075010;28;20048;-70
2021/08/20 07:14:26;;;;;;;1.52;0.82;;;20.70;61.90;;;;;;5074974;28;20029;-71
2021/08/20 07:16:53;;;;;;;3.47;0.80;;;20.50;62.20;;;;;;5074683;28;20081;-66
2021/08/20 07:19:20;;;;;;;2.95;0.63;;;20.40;62.60;;;;;;5073653;28;20021;-65
2021/08/20 07:21:48;;;;;;;1.10;0.70;;;20.30;62.90;;;;;;5073928;28;20029;-69
2021/08/20 07:24:15;;;;;;;1.08;0.68;;;20.20;63.10;;;;;;5073558;28;20167;-70
2021/08/20 07:26:43;;;;;;;1.05;0.95;;;20.20;63.30;;;;;;5074455;28;20020;-66
2021/08/20 07:29:10;;;;;;;1.65;0.80;;;20.10;64.00;;;;;;5074501;28;20463;-70
2021/08/20 07:31:37;;;;;;;6.68;1.25;;;20.00;64.20;;;;;;5076559;28;20032;-71
2021/08/20 07:34:05;;;;;;;3.88;0.80;;;20.00;64.20;;;;;;5076220;28;20084;-67
2021/08/20 07:36:33;;;;;;;1.95;0.80;;;19.90;64.90;;;;;;5075051;28;20052;-69
2021/08/20 07:39:01;;;;;;;5.00;1.23;;;19.80;64.80;;;;;;5074233;28;20053;-70
2021/08/20 07:41:28;;;;;;;1.30;0.90;;;19.70;64.60;;;;;;5074391;28;20020;-65
2021/08/20 07:43:55;;;;;;;2.13;0.73;;;19.70;65.10;;;;;;5074700;28;20103;-71
2021/08/20 07:46:23;;;;;;;1.55;0.70;;;19.70;64.90;;;;;;5073993;28;20070;-71
2021/08/20 07:48:50;;;;;;;3.70;0.95;;;19.60;65.10;;;;;;5072144;28;20028;-67
2021/08/20 07:51:18;;;;;;;1.38;0.60;;;19.60;65.40;;;;;;5067993;28;20081;-71
2021/08/20 07:53:45;;;;;;;4.38;1.02;;;19.60;65.60;;;;;;5071448;28;20086;-70
2021/08/20 07:56:14;;;;;;;5.03;0.88;;;19.50;65.90;;;;;;5072245;28;20040;-66
2021/08/20 07:58:41;;;;;;;1.30;0.82;;;19.60;66.10;;;;;;5071037;28;20078;-72
2021/08/20 08:01:10;;;;;;;1.85;1.00;;;19.60;66.30;;;;;;5071668;28;20016;-67
2021/08/20 08:03:38;;;;;;;1.77;1.00;;;19.50;66.30;;;;;;5071510;28;20029;-73
2021/08/20 08:06:06;;;;;;;1.58;0.93;;;19.50;66.20;;;;;;5068957;28;20020;-70
2021/08/20 08:08:33;;;;;;;2.85;1.10;;;19.50;66.30;;;;;;5067733;28;20036;-68
2021/08/20 08:11:01;;;;;;;3.05;1.50;;;19.50;66.40;;;;;;5071414;28;20028;-77
2021/08/20 08:13:28;;;;;;;2.40;0.93;;;19.50;67.00;;;;;;5072739;28;20028;-67
2021/08/20 08:15:56;;;;;;;1.02;0.70;;;19.50;66.80;;;;;;5067094;28;20028;-71
2021/08/20 08:18:23;;;;;;;2.10;0.77;;;19.50;67.10;;;;;;5071489;28;20040;-74
2021/08/20 08:20:51;;;;;;;1.83;0.68;;;19.40;67.20;;;;;;5069747;28;20149;-68
2021/08/20 08:23:18;;;;;;;3.53;1.08;;;19.40;67.40;;;;;;5071603;28;20028;-76
2021/08/20 08:25:47;;;;;;;4.57;1.00;;;19.40;67.50;;;;;;5064787;28;20017;-74
2021/08/20 08:28:17;;;;;;;1.83;1.02;;;19.40;67.60;;;;;;5071971;28;20021;-75
2021/08/20 08:31:02;;;;;;;;;;;;;;;;;;;;;
2021/08/20 08:33:42;;;;;;;1.63;1.00;;;19.30;67.90;;;;;;5066345;28;20029;-69
2021/08/20 08:36:27;;;;;;;4.72;1.35;;;19.30;68.10;;;;;;5066320;28;20427;-70
2021/08/20 08:38:54;;;;;;;1.52;1.13;;;19.30;68.20;;;;;;5072009;28;20035;-65
2021/08/20 08:41:22;;;;;;;2.00;1.00;;;19.30;68.20;;;;;;5071482;28;20021;-67
2021/08/20 08:44:11;;;;;;;1.63;0.85;;;19.30;68.30;;;;;;5071228;28;20020;-67
2021/08/20 08:46:51;;;;;;;3.15;1.00;;;19.20;68.30;;;;;;5070847;28;20077;-67
2021/08/20 08:49:25;;;;;;;2.05;0.80;;;19.20;68.40;;;;;;5073831;28;20056;-70
2021/08/20 08:51:52;;;;;;;1.75;0.60;;;19.20;68.50;;;;;;5069975;28;20102;-71
2021/08/20 08:54:20;;;;;;;1.40;0.90;;;19.10;68.70;;;;;;5066170;28;20043;-66
2021/08/20 08:56:50;;;;;;;1.88;1.13;;;19.10;69.00;;;;;;5071314;28;20044;-68
2021/08/20 08:59:18;;;;;;;2.28;0.95;;;19.10;69.10;;;;;;5066954;28;20021;-68
2021/08/20 09:01:46;;;;;;;2.17;0.90;;;19.00;69.30;;;;;;5066430;28;20104;-68
2021/08/20 09:04:23;;;;;;;2.60;1.00;;;19.00;69.30;;;;;;5067861;28;20047;-66
2021/08/20 09:10:33;;;;;;;3.85;0.80;;;19.00;69.30;;;;;;5053579;28;20044;-75
2021/08/20 09:13:02;;;;;;;1.95;0.85;;;19.00;69.40;;;;;;5068393;28;20497;-70
2021/08/20 09:15:32;;;;;;;2.45;1.63;;;18.90;69.50;;;;;;5065986;28;20032;-67
2021/08/20 09:18:04;;;;;;;2.53;1.23;;;18.90;69.90;;;;;;5071800;28;20029;-70
2021/08/20 09:20:34;;;;;;;2.20;1.10;;;18.90;69.80;;;;;;5070874;28;20020;-70
2021/08/20 09:23:23;;;;;;;13.52;1.10;;;18.90;69.80;;;;;;5071443;28;20024;-70
2021/08/20 09:25:55;;;;;;;3.58;1.60;;;18.80;70.30;;;;;;5065157;28;20048;-73
2021/08/20 09:28:53;;;;;;;9.52;4.00;;;18.80;70.50;;;;;;5070181;28;20379;-69
2021/08/20 09:31:33;;;;;;;22.70;9.02;;;18.80;70.10;;;;;;5069269;28;20083;-72
2021/08/20 09:34:06;;;;;;;28.08;13.32;;;18.80;70.00;;;;;;5068417;28;20051;-72
2021/08/20 09:36:41;;;;;;;28.70;14.77;;;18.80;70.40;;;;;;5071255;28;20052;-72
2021/08/20 09:39:08;;;;;;;21.52;11.45;;;18.80;70.20;;;;;;5071188;28;20059;-72
2021/08/20 09:41:44;;;;;;;31.83;15.90;;;18.80;71.60;;;;;;5072634;28;20016;-76
2021/08/20 09:44:25;;;;;;;32.28;17.45;;;18.80;70.30;;;;;;5068837;28;20982;-73
2021/08/20 09:47:06;;;;;;;32.60;16.15;;;18.80;70.30;;;;;;5074708;28;20342;-66
2021/08/20 09:50:19;;;;;;;34.35;15.75;;;18.80;70.80;;;;;;5076387;28;20032;-75
2021/08/20 09:53:01;;;;;;;23.20;12.45;;;18.80;70.70;;;;;;5073558;28;20031;-70
2021/08/20 09:55:46;;;;;;;34.80;18.20;;;18.80;71.50;;;;;;5069291;28;20086;-73
2021/08/20 09:58:18;;;;;;;34.45;15.65;;;18.80;70.40;;;;;;5071704;28;20036;-68
2021/08/20 10:00:50;;;;;;;43.42;20.17;;;18.80;71.00;;;;;;5071071;28;20039;-65
2021/08/20 10:03:18;;;;;;;37.95;17.48;;;18.80;70.80;;;;;;5075575;28;20044;-71
2021/08/20 10:05:50;;;;;;;43.13;18.95;;;18.80;70.60;;;;;;5068999;28;20024;-70
2021/08/20 10:08:18;;;;;;;35.10;17.63;;;18.80;70.70;;;;;;5071511;28;20032;-70
2021/08/20 10:10:48;;;;;;;37.58;18.05;;;18.80;71.00;;;;;;5074504;28;20030;-70
2021/08/20 10:13:17;;;;;;;32.75;14.88;;;18.70;70.80;;;;;;5074090;28;20027;-65
2021/08/20 10:15:45;;;;;;;44.33;20.65;;;18.80;71.60;;;;;;5069433;28;20062;-64
2021/08/20 10:18:15;;;;;;;39.00;20.00;;;18.70;70.50;;;;;;5073341;28;20031;-63
2021/08/20 10:20:44;;;;;;;36.83;15.98;;;18.70;70.40;;;;;;5073300;28;20068;-66
2021/08/20 10:23:15;;;;;;;34.85;17.92;;;18.70;70.70;;;;;;5074909;28;20066;-66
2021/08/20 10:25:43;;;;;;;34.58;19.48;;;18.70;70.90;;;;;;5076413;28;20404;-63
2021/08/20 10:28:15;;;;;;;32.45;15.90;;;18.60;70.30;;;;;;5076338;28;20024;-66
2021/08/20 10:30:44;;;;;;;28.38;14.95;;;18.60;70.70;;;;;;5076586;28;20055;-73
2021/08/20 10:33:12;;;;;;;39.28;15.68;;;18.60;71.50;;;;;;5077910;28;20020;-70
2021/08/20 10:35:53;;;;;;;33.85;17.00;;;18.60;71.40;;;;;;5077984;28;20024;-74
2021/08/20 10:38:24;;;;;;;34.85;16.60;;;18.60;70.30;;;;;;5077945;28;20487;-66
2021/08/20 10:41:21;;;;;;;32.75;16.13;;;18.60;70.20;;;;;;5076657;28;20055;-73
2021/08/20 10:44:10;;;;;;;28.80;15.30;;;18.60;70.00;;;;;;5060687;28;20036;-70
2021/08/20 10:47:05;;;;;;;28.17;14.73;;;18.60;70.50;;;;;;5078292;28;20040;-67
2021/08/20 10:50:14;;;;;;;31.25;15.38;;;18.60;71.20;;;;;;5077237;28;20386;-70
2021/08/20 10:52:52;;;;;;;26.45;13.57;;;18.50;70.30;;;;;;5039395;28;20120;-70
2021/08/20 10:55:35;;;;;;;31.88;15.82;;;18.50;70.20;;;;;;5079016;28;20020;-74
2021/08/20 10:58:05;;;;;;;;;;;18.50;70.40;;;;;;5077484;28;20029;-71
2021/08/20 11:00:36;;;;;;;33.28;15.45;;;18.50;70.50;;;;;;5076746;28;19904;-71
2021/08/20 11:03:07;;;;;;;26.58;13.68;;;18.50;71.10;;;;;;5077148;28;20028;-69
2021/08/20 11:05:49;;;;;;;29.75;16.17;;;18.50;71.90;;;;;;5069358;28;20032;-72
2021/08/20 11:08:29;;;;;;;30.15;14.23;;;18.40;70.90;;;;;;5076226;28;20048;-72
2021/08/20 11:11:06;;;;;;;33.20;15.30;;;18.40;71.20;;;;;;5076100;28;20025;-68
2021/08/20 11:13:34;;;;;;;36.25;13.07;;;18.40;72.00;;;;;;5076745;28;20112;-71
2021/08/20 11:16:14;;;;;;;26.85;11.70;;;18.30;71.60;;;;;;5076148;28;20056;-70
2021/08/20 11:19:17;;;;;;;42.75;15.18;;;18.30;72.00;;;;;;5071037;28;20040;-69
2021/08/20 11:21:47;;;;;;;31.73;13.38;;;18.30;71.80;;;;;;5074972;28;20037;-68
2021/08/20 11:24:21;;;;;;;27.67;14.02;;;18.30;71.30;;;;;;5058289;28;20107;-72
2021/08/20 11:26:52;;;;;;;30.88;12.50;;;18.30;71.60;;;;;;5073859;28;20493;-68
2021/08/20 11:29:21;;;;;;;29.92;13.73;;;18.20;71.60;;;;;;5075252;28;20441;-69
2021/08/20 11:32:05;;;;;;;27.85;12.13;;;18.30;71.30;;;;;;5075090;28;20560;-68
2021/08/20 11:34:49;;;;;;;22.90;10.80;;;18.30;71.50;;;;;;5075281;28;20028;-70
2021/08/20 11:37:17;;;;;;;36.92;15.23;;;18.20;72.00;;;;;;5076083;28;20064;-72
2021/08/20 11:40:06;;;;;;;34.42;13.70;;;18.20;71.60;;;;;;5075192;28;20467;-73
2021/08/20 11:42:35;;;;;;;22.35;11.77;;;18.20;71.90;;;;;;5075422;28;20020;-73
2021/08/20 11:45:22;;;;;;;29.90;14.20;;;18.20;72.50;;;;;;5075138;28;20362;-70
2021/08/20 11:47:57;;;;;;;31.13;15.05;;;18.10;71.60;;;;;;5074476;28;20024;-73
2021/08/20 11:50:25;;;;;;;22.73;13.70;;;18.10;71.50;;;;;;5075532;28;20440;-68
2021/08/20 11:52:57;;;;;;;28.48;13.15;;;18.10;72.00;;;;;;5064990;28;20058;-70
2021/08/20 11:55:25;;;;;;;28.75;12.25;;;18.10;71.90;;;;;;5073580;28;20120;-70
2021/08/20 11:57:53;;;;;;;20.90;12.63;;;18.10;72.50;;;;;;5076119;28;20089;-69
2021/08/20 12:00:21;;;;;;;23.08;12.00;;;18.10;71.40;;;;;;5071516;28;20048;-67
2021/08/20 12:02:49;;;;;;;29.17;14.18;;;18.20;72.20;;;;;;5070055;28;20024;-69
2021/08/20 12:05:41;;;;;;;25.92;13.57;;;18.20;71.50;;;;;;5071589;28;20305;-74
2021/08/20 12:08:17;;;;;;;30.45;13.73;;;18.20;71.40;;;;;;5071807;28;20032;-64
2021/08/20 12:10:47;;;;;;;26.33;13.10;;;18.20;71.30;;;;;;5071619;28;20025;-65
2021/08/20 12:13:15;;;;;;;25.48;12.90;;;18.20;71.40;;;;;;5069377;28;20029;-72
2021/08/20 12:15:44;;;;;;;22.25;12.27;;;18.20;71.20;;;;;;5073477;28;20491;-71
2021/08/20 12:18:22;;;;;;;26.35;12.70;;;18.20;71.10;;;;;;5074512;28;20043;-75
2021/08/20 12:20:51;;;;;;;24.30;13.65;;;18.20;71.00;;;;;;5068836;28;20074;-72
2021/08/20 12:23:19;;;;;;;25.77;13.20;;;18.20;70.90;;;;;;5069664;28;20527;-69
2021/08/20 12:25:47;;;;;;;23.17;12.20;;;18.20;71.00;;;;;;5073711;28;20024;-65
2021/08/20 12:28:22;;;;;;;26.90;14.55;;;18.30;70.90;;;;;;5071504;28;20386;-66
2021/08/20 12:30:49;;;;;;;22.73;12.00;;;18.20;70.80;;;;;;5072334;28;20056;-70
2021/08/20 12:33:23;;;;;;;23.60;13.23;;;18.20;70.80;;;;;;5066710;28;20024;-72
2021/08/20 12:35:52;;;;;;;26.23;12.73;;;18.20;70.70;;;;;;5072406;28;20024;-68
2021/08/20 12:38:23;;;;;;;29.30;12.35;;;18.20;70.70;;;;;;5071815;28;20032;-72
2021/08/20 12:41:02;;;;;;;20.07;12.43;;;18.20;70.60;;;;;;5071244;28;20032;-73
2021/08/20 12:43:29;;;;;;;25.00;12.32;;;18.20;70.50;;;;;;5066521;28;20086;-66
2021/08/20 12:46:11;;;;;;;21.73;12.15;;;18.20;70.60;;;;;;5073005;28;20020;-67
2021/08/20 12:49:05;;;;;;;23.17;11.68;;;18.20;70.50;;;;;;5069141;28;20621;-68
2021/08/20 12:51:35;;;;;;;22.30;11.70;;;18.20;70.50;;;;;;5070353;28;20032;-68
2021/08/20 12:54:14;;;;;;;21.25;12.00;;;18.20;70.50;;;;;;5066117;28;20033;-67
2021/08/20 12:56:44;;;;;;;22.63;11.18;;;18.20;70.30;;;;;;5066479;28;20429;-70
2021/08/20 12:59:21;;;;;;;24.73;12.23;;;18.20;70.10;;;;;;5069031;28;20033;-68
2021/08/20 13:01:50;;;;;;;19.70;10.45;;;18.20;70.40;;;;;;5068586;28;20025;-69
2021/08/20 13:04:17;;;;;;;18.92;11.80;;;18.20;70.30;;;;;;5066379;28;20024;-67
2021/08/20 13:06:45;;;;;;;19.45;11.10;;;18.20;70.20;;;;;;5071033;28;20096;-68